Time;durP1;ratioP1;P1;durP2;ratioP2;P2;SDS_P1;SDS_P2;PMS_P1;PMS_P2;Temp;Humidity;BMP_temperature;BMP_pressure;BME280_temperature;BME280_humidity;BME280_pressure;Samples;Min_cycle;Max_cycle;Signal;HPM_P1;HPM_P2
2023/06/22 00:00:18;;;;;;;19.38;13.70;;;;;;;20.42;67.91;102062.34;7385575;19;19997;-66
2023/06/22 00:02:49;;;;;;;25.70;15.45;;;;;;;20.30;68.19;102075.00;7384873;19;19945;-67
2023/06/22 00:05:18;;;;;;;21.33;15.07;;;;;;;20.24;68.09;102078.53;7386652;19;20578;-65
2023/06/22 00:07:47;;;;;;;22.65;15.50;;;;;;;20.24;68.00;102078.53;7388358;19;20271;-68
2023/06/22 00:10:15;;;;;;;24.15;17.17;;;;;;;20.15;68.83;102077.09;7387700;19;19950;-66
2023/06/22 00:12:44;;;;;;;26.30;18.52;;;;;;;20.08;68.76;102076.22;7384349;19;19933;-66
2023/06/22 00:15:13;;;;;;;26.77;17.45;;;;;;;20.03;68.41;102079.59;7384817;19;19939;-67
2023/06/22 00:17:42;;;;;;;23.50;16.77;;;;;;;20.02;68.70;102090.75;7387073;19;19954;-66
2023/06/22 00:20:14;;;;;;;26.23;17.42;;;;;;;20.03;68.66;102087.78;7386446;19;19921;-67
2023/06/22 00:22:42;;;;;;;27.25;18.17;;;;;;;20.07;68.71;102090.94;7387758;19;20872;-66
2023/06/22 00:25:12;;;;;;;25.40;18.55;;;;;;;20.04;68.60;102091.38;7387610;19;19982;-66
2023/06/22 00:27:40;;;;;;;25.85;18.02;;;;;;;19.92;68.73;102086.53;7383104;19;20263;-66
2023/06/22 00:30:11;;;;;;;28.58;17.75;;;;;;;19.88;69.02;102087.16;7383599;19;19941;-66
2023/06/22 00:32:40;;;;;;;25.50;17.33;;;;;;;19.79;69.36;102088.41;7384757;19;19929;-66
2023/06/22 00:35:13;;;;;;;30.15;19.27;;;;;;;19.77;69.28;102093.22;7383451;19;19935;-66
2023/06/22 00:37:42;;;;;;;27.50;18.77;;;;;;;19.73;69.88;102095.53;7384138;19;20723;-66
2023/06/22 00:40:14;;;;;;;27.67;17.42;;;;;;;19.74;69.19;102094.50;7383785;19;19925;-67
2023/06/22 00:42:43;;;;;;;23.15;17.08;;;;;;;19.71;69.56;102097.66;7383410;19;19930;-67
2023/06/22 00:45:12;;;;;;;27.90;17.90;;;;;;;19.59;70.06;102102.03;7384481;19;19928;-66
2023/06/22 00:47:43;;;;;;;26.38;17.52;;;;;;;19.57;70.11;102086.88;7386115;19;19919;-67
2023/06/22 00:50:21;;;;;;;28.30;18.08;;;;;;;19.52;70.33;102084.78;7385277;19;19933;-66
2023/06/22 00:52:50;;;;;;;;;;;;;;;19.21;72.09;102092.63;7387817;19;19919;-68
2023/06/22 00:55:19;;;;;;;25.52;17.02;;;;;;;19.40;69.94;102083.66;7385131;19;19985;-66
2023/06/22 00:57:49;;;;;;;25.65;17.63;;;;;;;19.39;70.40;102088.28;7389228;19;19933;-66
2023/06/22 01:00:20;;;;;;;25.73;17.98;;;;;;;19.33;70.42;102085.50;7385847;19;20018;-66
2023/06/22 01:02:51;;;;;;;27.13;18.63;;;;;;;19.29;70.40;102090.53;7384307;19;20404;-66
2023/06/22 01:05:23;;;;;;;24.17;17.17;;;;;;;19.28;70.79;102082.56;7382551;19;19929;-66
2023/06/22 01:08:08;;;;;;;26.95;16.92;;;;;;;19.16;71.46;102085.03;7381644;19;19926;-67
2023/06/22 01:10:44;;;;;;;24.60;16.83;;;;;;;19.18;70.79;102085.69;7384949;19;19922;-66
2023/06/22 01:13:24;;;;;;;23.77;16.98;;;;;;;19.14;71.32;102086.28;7385016;19;19960;-66
2023/06/22 01:15:59;;;;;;;23.30;16.88;;;;;;;19.13;70.81;102087.34;7383023;19;20650;-66
2023/06/22 01:18:31;;;;;;;27.23;17.63;;;;;;;19.10;71.06;102087.75;7385364;19;20000;-67
2023/06/22 01:21:07;;;;;;;25.20;16.33;;;;;;;19.03;71.33;102085.81;7382621;19;19922;-66
2023/06/22 01:23:49;;;;;;;20.10;14.95;;;;;;;18.99;71.61;102089.16;7382704;19;19934;-66
2023/06/22 01:26:23;;;;;;;20.63;15.25;;;;;;;18.99;71.44;102089.16;7383156;19;19930;-66
2023/06/22 01:28:58;;;;;;;22.95;15.05;;;;;;;18.97;71.51;102096.72;7384570;19;19935;-66
2023/06/22 01:31:29;;;;;;;23.27;15.32;;;;;;;19.00;71.30;102088.13;7382238;19;19957;-66
2023/06/22 01:34:03;;;;;;;21.23;15.63;;;;;;;18.92;71.20;102075.47;7385555;19;20341;-66
2023/06/22 01:36:33;;;;;;;20.73;14.70;;;;;;;18.91;71.39;102075.69;7383569;19;19922;-66
2023/06/22 01:39:03;;;;;;;20.42;14.80;;;;;;;18.92;71.54;102074.63;7384723;19;19933;-66
2023/06/22 01:41:34;;;;;;;23.55;15.75;;;;;;;18.92;71.66;102080.94;7372956;19;20379;-66
2023/06/22 01:44:07;;;;;;;24.52;17.02;;;;;;;18.92;71.76;102074.63;7380616;19;19943;-66
2023/06/22 01:46:37;;;;;;;25.75;17.85;;;;;;;18.92;71.73;102075.47;7382541;19;19929;-66
2023/06/22 01:49:07;;;;;;;29.25;19.67;;;;;;;18.90;71.96;102072.09;7382702;19;19922;-66
2023/06/22 01:51:36;;;;;;;26.30;18.70;;;;;;;18.88;71.63;102068.75;7379029;19;19928;-67
2023/06/22 01:54:05;;;;;;;28.90;18.60;;;;;;;18.84;72.01;102055.69;7382680;19;19993;-66
2023/06/22 01:56:35;;;;;;;24.38;17.67;;;;;;;18.81;71.41;102050.66;7383307;19;19922;-66
2023/06/22 01:59:12;;;;;;;25.58;18.70;;;;;;;18.72;72.57;102052.69;7386096;19;19948;-66
2023/06/22 02:01:46;;;;;;;27.27;17.65;;;;;;;18.66;72.33;102058.09;7380415;19;19926;-66
2023/06/22 02:04:20;;;;;;;29.05;18.88;;;;;;;18.63;72.42;102056.63;7382649;19;19943;-66
2023/06/22 02:06:53;;;;;;;25.73;18.35;;;;;;;18.64;72.52;102054.75;7381970;19;19928;-66
2023/06/22 02:09:25;;;;;;;29.45;19.88;;;;;;;18.60;72.31;102057.03;7381218;19;19977;-65
2023/06/22 02:11:57;;;;;;;27.80;18.70;;;;;;;18.54;72.30;102053.22;7381339;19;19923;-65
2023/06/22 02:14:29;;;;;;;27.30;19.00;;;;;;;18.48;72.79;102043.06;7383224;19;23237;-66
2023/06/22 02:17:00;;;;;;;24.40;17.30;;;;;;;18.49;72.35;102049.38;7379331;19;20260;-66
2023/06/22 02:19:33;;;;;;;28.70;19.83;;;;;;;18.48;72.71;102058.59;7381856;19;19926;-67
2023/06/22 02:22:01;;;;;;;26.83;19.52;;;;;;;18.47;72.42;102048.72;7380589;19;19926;-66
2023/06/22 02:24:31;;;;;;;28.80;17.83;;;;;;;18.48;72.51;102045.78;7379678;19;20248;-66
2023/06/22 02:27:00;;;;;;;27.13;18.33;;;;;;;18.50;72.41;102051.06;7379139;19;20244;-65
2023/06/22 02:29:32;;;;;;;28.10;18.35;;;;;;;18.48;72.66;102051.25;7379853;19;19994;-67
2023/06/22 02:32:01;;;;;;;26.08;17.17;;;;;;;18.48;72.86;102053.13;7380585;19;19922;-67
2023/06/22 02:34:30;;;;;;;26.77;18.00;;;;;;;18.49;72.75;102052.94;7382346;19;19918;-67
2023/06/22 02:37:00;;;;;;;25.48;17.75;;;;;;;18.52;72.66;102043.50;7384425;19;19915;-66
2023/06/22 02:39:29;;;;;;;27.52;18.58;;;;;;;18.52;72.68;102051.69;7380648;19;19941;-66
2023/06/22 02:41:58;;;;;;;27.73;17.95;;;;;;;18.45;72.91;102050.81;7385338;19;20501;-66
2023/06/22 02:44:27;;;;;;;27.25;18.15;;;;;;;18.41;72.46;102060.44;7381661;19;19952;-66
2023/06/22 02:46:58;;;;;;;29.92;18.98;;;;;;;18.38;72.80;102058.13;7383348;19;19978;-66
2023/06/22 02:49:27;;;;;;;27.65;17.73;;;;;;;18.34;72.74;102063.13;7383148;19;19921;-66
2023/06/22 02:51:56;;;;;;;27.08;17.33;;;;;;;18.36;72.98;102065.66;7385238;19;19946;-66
2023/06/22 02:54:24;;;;;;;26.13;18.77;;;;;;;18.36;73.20;102062.94;7380196;19;19927;-66
2023/06/22 02:56:53;;;;;;;28.63;19.30;;;;;;;18.34;73.07;102065.84;7383254;19;20579;-66
2023/06/22 02:59:23;;;;;;;28.08;19.10;;;;;;;18.28;73.69;102071.25;7386525;19;19933;-67
2023/06/22 03:01:53;;;;;;;29.13;19.55;;;;;;;18.26;73.55;102078.78;7382519;19;19919;-66
2023/06/22 03:04:24;;;;;;;31.25;19.67;;;;;;;18.22;73.64;102077.50;7380630;19;19914;-66
2023/06/22 03:06:53;;;;;;;28.45;18.23;;;;;;;18.19;73.30;102080.63;7383431;19;19927;-66
2023/06/22 03:09:23;;;;;;;30.38;19.67;;;;;;;18.20;73.29;102069.53;7382013;19;19927;-65
2023/06/22 03:11:51;;;;;;;29.10;18.42;;;;;;;18.17;73.94;102069.06;7380718;19;20619;-66
2023/06/22 03:14:20;;;;;;;28.35;18.58;;;;;;;18.13;73.34;102068.63;7383827;19;20599;-66
2023/06/22 03:16:49;;;;;;;25.30;17.70;;;;;;;18.09;73.26;102065.44;7372975;19;19929;-67
2023/06/22 03:19:19;;;;;;;28.80;18.70;;;;;;;18.03;73.87;102068.94;7380661;19;20420;-66
2023/06/22 03:21:50;;;;;;;24.75;17.80;;;;;;;17.98;74.02;102065.16;7377885;19;19934;-67
2023/06/22 03:24:20;;;;;;;26.80;18.40;;;;;;;18.01;73.73;102067.47;7379814;19;19927;-67
2023/06/22 03:26:49;;;;;;;27.42;18.70;;;;;;;18.05;73.85;102072.34;7378144;19;19931;-67
2023/06/22 03:29:18;;;;;;;24.65;17.50;;;;;;;18.07;73.46;102074.88;7386651;19;20149;-66
2023/06/22 03:31:46;;;;;;;25.70;17.65;;;;;;;18.04;73.80;102078.81;7381167;19;20383;-67
2023/06/22 03:34:15;;;;;;;26.90;17.55;;;;;;;17.99;73.65;102069.56;7380953;19;19989;-67
2023/06/22 03:36:45;;;;;;;25.83;17.75;;;;;;;17.97;74.08;102072.47;7377559;19;23031;-67
2023/06/22 03:39:17;;;;;;;27.48;17.55;;;;;;;17.98;74.06;102070.59;7378888;19;19947;-67
2023/06/22 03:41:46;;;;;;;25.20;17.83;;;;;;;17.96;74.17;102067.22;7376283;19;20769;-68
2023/06/22 03:44:15;;;;;;;26.05;17.52;;;;;;;17.93;74.18;102071.19;7375457;19;19941;-67
2023/06/22 03:46:43;;;;;;;25.90;17.27;;;;;;;17.93;74.16;102064.88;7378171;19;20264;-67
2023/06/22 03:49:12;;;;;;;26.02;17.17;;;;;;;17.95;74.51;102071.81;7379786;19;20775;-67
2023/06/22 03:51:41;;;;;;;25.15;17.27;;;;;;;17.96;74.59;102078.97;7379398;19;19922;-67
2023/06/22 03:54:10;;;;;;;29.70;19.17;;;;;;;17.96;74.88;102078.13;7375323;19;19922;-67
2023/06/22 03:56:41;;;;;;;26.98;19.50;;;;;;;17.95;74.91;102073.69;7379163;19;19932;-67
2023/06/22 03:59:09;;;;;;;27.63;18.67;;;;;;;17.95;74.87;102071.81;7385092;19;19929;-67
2023/06/22 04:01:38;;;;;;;32.97;19.73;;;;;;;17.93;74.90;102075.78;7377773;19;19940;-67
2023/06/22 04:04:08;;;;;;;28.73;18.23;;;;;;;17.96;74.87;102072.66;7377648;19;19923;-67
2023/06/22 04:06:37;;;;;;;27.40;19.17;;;;;;;18.01;74.64;102064.75;7379579;19;20027;-67
2023/06/22 04:09:05;;;;;;;30.45;19.05;;;;;;;18.03;74.78;102068.94;7382586;19;19923;-67
2023/06/22 04:11:34;;;;;;;27.95;18.35;;;;;;;18.04;74.77;102067.91;7380242;19;19943;-67
2023/06/22 04:14:06;;;;;;;27.15;17.73;;;;;;;18.10;75.00;102078.06;7381789;19;19922;-67
2023/06/22 04:16:36;;;;;;;30.02;19.23;;;;;;;18.12;74.93;102072.41;7378297;19;19950;-66
2023/06/22 04:19:04;;;;;;;28.55;19.83;;;;;;;18.15;74.67;102077.47;7381134;19;19943;-66
2023/06/22 04:21:34;;;;;;;26.95;18.67;;;;;;;18.17;74.99;102075.38;7378473;19;19960;-68
2023/06/22 04:24:02;;;;;;;28.80;18.25;;;;;;;18.20;74.84;102075.00;7379572;19;19926;-66
2023/06/22 04:26:36;;;;;;;23.30;16.35;;;;;;;18.25;74.51;102069.75;7379351;19;19930;-66
2023/06/22 04:29:08;;;;;;;24.80;16.80;;;;;;;18.26;74.45;102071.44;7378430;19;19922;-67
2023/06/22 04:31:36;;;;;;;;;;;;;;;18.01;75.88;102075.66;7381703;19;19922;-66
2023/06/22 04:34:08;;;;;;;26.58;16.15;;;;;;;18.22;74.82;102080.22;7380350;19;19952;-66
2023/06/22 04:36:39;;;;;;;23.48;15.95;;;;;;;18.24;74.26;102069.97;7373036;19;19946;-68
2023/06/22 04:39:09;;;;;;;;;;;;;;;18.01;76.31;102081.09;7379229;19;19966;-67
2023/06/22 04:41:44;;;;;;;24.52;15.05;;;;;;;18.21;74.83;102081.28;7384925;19;19923;-67
2023/06/22 04:44:23;;;;;;;21.48;14.85;;;;;;;18.24;74.85;102076.28;7385211;19;20386;-67
2023/06/22 04:46:53;;;;;;;22.50;15.30;;;;;;;18.26;74.87;102066.00;7385653;19;19986;-67
2023/06/22 04:49:23;;;;;;;29.70;17.67;;;;;;;18.30;74.59;102066.44;7386551;19;19977;-67
2023/06/22 04:51:54;;;;;;;23.33;16.70;;;;;;;18.34;74.50;102075.91;7385589;19;19925;-67
2023/06/22 04:54:23;;;;;;;24.38;17.25;;;;;;;18.35;74.85;102066.69;7382096;19;19922;-67
2023/06/22 04:56:56;;;;;;;27.33;17.08;;;;;;;18.38;74.50;102058.94;7385259;19;19970;-67
2023/06/22 04:59:29;;;;;;;25.05;17.55;;;;;;;18.38;74.59;102067.13;7388305;19;19922;-67
2023/06/22 05:01:58;;;;;;;22.27;15.85;;;;;;;18.39;74.00;102062.50;7384720;19;19922;-68
2023/06/22 05:04:31;;;;;;;26.35;17.17;;;;;;;18.40;74.03;102065.06;7384148;19;19923;-68
2023/06/22 05:07:00;;;;;;;24.77;16.92;;;;;;;18.40;74.63;102066.94;7386041;19;19918;-68
2023/06/22 05:09:29;;;;;;;24.33;17.02;;;;;;;18.40;74.29;102064.22;7384281;19;19924;-68
2023/06/22 05:11:59;;;;;;;27.13;16.90;;;;;;;18.42;74.54;102073.06;7346592;19;19939;-68
2023/06/22 05:14:31;;;;;;;20.30;14.25;;;;;;;18.50;74.27;102070.16;7383680;19;20328;-68
2023/06/22 05:17:03;;;;;;;20.98;14.50;;;;;;;18.61;73.37;102069.63;7385595;19;19923;-68
2023/06/22 05:19:33;;;;;;;22.08;15.10;;;;;;;18.70;73.32;102071.16;7385393;19;19918;-69
2023/06/22 05:22:02;;;;;;;22.52;14.95;;;;;;;18.81;73.24;102065.13;7383136;19;19986;-68
2023/06/22 05:24:31;;;;;;;16.38;11.45;;;;;;;18.96;72.65;102071.28;7384755;19;19929;-66
2023/06/22 05:27:00;;;;;;;15.93;11.48;;;;;;;19.15;72.30;102072.44;7386197;19;20261;-68
2023/06/22 05:29:31;;;;;;;21.10;13.48;;;;;;;19.26;71.97;102069.09;7383208;19;19918;-67
2023/06/22 05:32:00;;;;;;;19.65;13.77;;;;;;;19.27;71.53;102067.22;7385334;19;19943;-66
2023/06/22 05:34:29;;;;;;;21.27;14.40;;;;;;;19.26;71.46;102080.03;7383612;19;20339;-68
2023/06/22 05:36:59;;;;;;;20.98;14.32;;;;;;;19.26;71.29;102060.91;7384785;19;19930;-68
2023/06/22 05:39:28;;;;;;;18.00;12.80;;;;;;;19.26;71.94;102060.91;7382347;19;19929;-69
2023/06/22 05:41:57;;;;;;;18.27;13.75;;;;;;;19.27;71.73;102069.94;7384426;19;19925;-69
2023/06/22 05:44:26;;;;;;;19.15;13.88;;;;;;;19.27;71.48;102062.59;7384105;19;19990;-68
2023/06/22 05:46:57;;;;;;;20.80;14.48;;;;;;;19.31;71.53;102066.59;7384006;19;19999;-68
2023/06/22 05:49:29;;;;;;;21.33;14.50;;;;;;;19.38;71.06;102070.19;7383194;19;19919;-68
2023/06/22 05:51:59;;;;;;;18.75;13.60;;;;;;;19.41;70.67;102067.06;7385386;19;19948;-68
2023/06/22 05:54:27;;;;;;;21.77;14.30;;;;;;;19.42;70.39;102070.63;7381912;19;19918;-68
2023/06/22 05:56:56;;;;;;;18.02;12.98;;;;;;;19.43;70.55;102067.72;7385167;19;20639;-68
2023/06/22 05:59:25;;;;;;;16.02;11.43;;;;;;;19.46;70.39;102071.91;7367334;19;20263;-68
2023/06/22 06:01:53;;;;;;;19.17;13.82;;;;;;;19.54;70.64;102058.09;7382643;19;19946;-70
2023/06/22 06:04:25;;;;;;;17.17;13.57;;;;;;;19.61;70.14;102060.81;7382689;19;19911;-71
2023/06/22 06:06:54;;;;;;;21.35;14.43;;;;;;;19.62;70.50;102067.97;7381115;19;20570;-70
2023/06/22 06:09:22;;;;;;;20.13;13.85;;;;;;;19.62;70.87;102071.56;7381267;19;19928;-69
2023/06/22 06:11:51;;;;;;;20.52;14.85;;;;;;;19.63;70.68;102073.22;7382391;19;19977;-69
2023/06/22 06:14:20;;;;;;;18.92;13.95;;;;;;;19.66;70.62;102078.28;7379945;19;19925;-79
2023/06/22 06:16:49;;;;;;;19.85;14.30;;;;;;;19.67;70.55;102074.53;7384333;19;19935;-69
2023/06/22 06:19:17;;;;;;;18.65;14.07;;;;;;;19.74;70.52;102075.38;7385050;19;20250;-81
2023/06/22 06:21:49;;;;;;;17.55;13.32;;;;;;;19.80;70.80;102066.31;7405849;19;19918;-77
2023/06/22 06:24:18;;;;;;;22.10;13.60;;;;;;;19.85;70.36;102073.88;7405953;19;20357;-80
2023/06/22 06:26:47;;;;;;;20.23;13.82;;;;;;;19.90;70.50;102080.41;7384871;19;19921;-68
2023/06/22 06:29:16;;;;;;;18.02;14.13;;;;;;;19.92;70.24;102082.97;7381418;19;19919;-68
2023/06/22 06:31:45;;;;;;;21.20;14.50;;;;;;;19.97;70.01;102085.06;7382621;19;19939;-69
2023/06/22 06:34:13;;;;;;;18.55;13.48;;;;;;;20.00;70.28;102084.63;7377320;19;19914;-70
2023/06/22 06:36:42;;;;;;;17.08;10.55;;;;;;;20.04;70.08;102081.28;7379902;19;19951;-69
2023/06/22 06:39:13;;;;;;;20.17;13.88;;;;;;;20.13;69.50;102080.03;7379994;19;19986;-69
2023/06/22 06:41:43;;;;;;;17.83;11.82;;;;;;;20.21;69.06;102087.16;7380283;19;21726;-69
2023/06/22 06:44:11;;;;;;;17.98;13.35;;;;;;;20.29;69.21;102092.41;7382741;19;20633;-69
2023/06/22 06:46:41;;;;;;;16.02;11.68;;;;;;;20.31;69.07;102087.63;7377830;19;19926;-69
2023/06/22 06:49:10;;;;;;;18.00;13.98;;;;;;;20.34;68.73;102082.56;7366644;19;19970;-69
2023/06/22 06:51:39;;;;;;;14.90;12.13;;;;;;;20.36;68.29;102076.88;7384651;19;20309;-69
2023/06/22 06:54:07;;;;;;;19.58;12.77;;;;;;;20.38;68.66;102077.50;7366834;19;19990;-69
2023/06/22 06:56:39;;;;;;;12.40;9.77;;;;;;;20.44;68.72;102079.41;7378107;19;20312;-69
2023/06/22 06:59:08;;;;;;;17.77;12.27;;;;;;;20.50;68.25;102075.78;7368552;19;19925;-69
2023/06/22 07:01:37;;;;;;;15.48;11.55;;;;;;;20.57;67.19;102073.91;7360601;19;19926;-69
2023/06/22 07:04:06;;;;;;;15.75;10.85;;;;;;;20.62;67.66;102076.81;7376394;19;20435;-69
2023/06/22 07:06:35;;;;;;;15.65;10.80;;;;;;;20.71;67.61;102082.94;7374026;19;19917;-69
2023/06/22 07:09:03;;;;;;;15.98;11.35;;;;;;;20.80;66.58;102081.63;7380432;19;19986;-69
2023/06/22 07:11:32;;;;;;;14.70;10.63;;;;;;;20.85;66.57;102090.03;7380331;19;19943;-69
2023/06/22 07:14:03;;;;;;;13.80;9.13;;;;;;;20.92;66.43;102079.09;7382314;19;19922;-69
2023/06/22 07:16:32;;;;;;;13.57;10.15;;;;;;;21.02;65.93;102080.28;7379847;19;19985;-69
2023/06/22 07:19:01;;;;;;;12.50;7.15;;;;;;;21.14;65.68;102080.50;7381811;19;19929;-69
2023/06/22 07:21:30;;;;;;;13.32;10.05;;;;;;;21.28;65.21;102072.00;7379378;19;19918;-69
2023/06/22 07:23:58;;;;;;;9.75;6.88;;;;;;;21.35;64.98;102082.09;7381742;19;19937;-69
2023/06/22 07:26:27;;;;;;;10.93;8.25;;;;;;;21.42;65.13;102072.78;7380855;19;19922;-69
2023/06/22 07:28:56;;;;;;;10.52;6.78;;;;;;;21.54;63.90;102071.00;7381055;19;19939;-69
2023/06/22 07:31:27;;;;;;;11.60;7.15;;;;;;;21.68;63.31;102072.59;7380428;19;19922;-69
2023/06/22 07:33:56;;;;;;;;;;;;;;;21.66;61.84;102071.97;7382470;19;20338;-70
2023/06/22 07:36:25;;;;;;;11.63;7.13;;;;;;;21.86;63.20;102074.59;7381449;19;19973;-69
2023/06/22 07:38:53;;;;;;;7.45;5.20;;;;;;;21.90;62.06;102066.75;7379745;19;22618;-69
2023/06/22 07:41:22;;;;;;;9.60;6.82;;;;;;;21.91;62.92;102065.69;7379586;19;22430;-69
2023/06/22 07:43:52;;;;;;;10.90;7.68;;;;;;;21.95;62.52;102064.22;7379375;19;19926;-69
2023/06/22 07:46:20;;;;;;;9.30;6.10;;;;;;;21.98;62.35;102067.34;7380296;19;19948;-69
2023/06/22 07:48:52;;;;;;;10.60;6.38;;;;;;;22.05;61.54;102059.06;7378425;19;19926;-69
2023/06/22 07:51:21;;;;;;;10.50;6.03;;;;;;;22.11;63.13;102058.16;7384101;19;20361;-69
2023/06/22 07:53:49;;;;;;;9.90;6.80;;;;;;;22.16;62.45;102052.84;7381341;19;20426;-69
2023/06/22 07:56:20;;;;;;;9.45;5.38;;;;;;;22.18;62.69;102048.81;7378611;19;19963;-70
2023/06/22 07:58:49;;;;;;;6.97;5.32;;;;;;;22.27;61.94;102051.25;7380146;19;19923;-69
2023/06/22 08:01:20;;;;;;;7.05;4.35;;;;;;;22.36;61.23;102034.28;7379484;19;20358;-69
2023/06/22 08:03:53;;;;;;;8.15;5.05;;;;;;;22.39;60.67;102033.81;7379251;19;20432;-69
2023/06/22 08:06:21;;;;;;;10.65;5.60;;;;;;;22.46;61.11;102031.84;7378489;19;20034;-69
2023/06/22 08:08:52;;;;;;;7.00;4.90;;;;;;;22.52;59.80;102030.94;7380582;19;19922;-69
2023/06/22 08:11:22;;;;;;;9.93;6.10;;;;;;;22.59;61.13;102039.13;7380247;19;19919;-69
2023/06/22 08:13:50;;;;;;;6.45;5.38;;;;;;;22.62;60.63;102041.41;7383857;19;19929;-69
2023/06/22 08:16:19;;;;;;;8.25;5.53;;;;;;;22.63;60.89;102037.59;7386875;19;20300;-70
2023/06/22 08:18:48;;;;;;;7.63;4.90;;;;;;;22.65;60.17;102038.22;7386655;19;20011;-68
2023/06/22 08:21:19;;;;;;;8.07;5.03;;;;;;;22.67;60.13;102029.72;7386902;19;19922;-70
2023/06/22 08:23:48;;;;;;;7.30;4.22;;;;;;;22.70;59.72;102027.38;7389379;19;20439;-70
2023/06/22 08:26:17;;;;;;;7.75;4.60;;;;;;;22.76;59.64;102022.88;7385308;19;19926;-70
2023/06/22 08:28:46;;;;;;;6.88;4.55;;;;;;;22.79;58.98;102031.50;7387243;19;20609;-70
2023/06/22 08:31:15;;;;;;;7.68;3.95;;;;;;;22.83;59.33;102029.13;7384584;19;19941;-70
2023/06/22 08:33:45;;;;;;;6.25;4.43;;;;;;;22.91;58.86;102021.41;7385157;19;19925;-69
2023/06/22 08:36:14;;;;;;;7.28;4.43;;;;;;;22.99;59.37;102034.03;7386215;19;19918;-69
2023/06/22 08:38:50;;;;;;;5.88;4.43;;;;;;;23.04;59.37;102025.91;7385477;19;19928;-70
2023/06/22 08:41:19;;;;;;;7.68;5.80;;;;;;;23.11;59.34;102017.59;7385298;19;19946;-69
2023/06/22 08:43:47;;;;;;;6.30;4.07;;;;;;;23.15;58.94;102027.03;7385715;19;20705;-69
2023/06/22 08:46:21;;;;;;;5.65;4.03;;;;;;;23.22;57.82;102023.13;7383439;19;19922;-69
2023/06/22 08:48:50;;;;;;;7.13;3.60;;;;;;;23.27;58.27;102028.78;7384830;19;19923;-70
2023/06/22 08:51:19;;;;;;;5.32;3.50;;;;;;;23.32;57.11;102023.41;7390433;19;20002;-70
2023/06/22 08:53:50;;;;;;;4.68;2.90;;;;;;;23.37;57.57;102012.56;7385213;19;20268;-69
2023/06/22 08:56:19;;;;;;;7.40;2.95;;;;;;;23.41;57.66;102013.75;7385707;19;20356;-70
2023/06/22 08:58:48;;;;;;;9.77;4.35;;;;;;;23.44;58.01;102005.06;7385597;19;19930;-70
2023/06/22 09:01:17;;;;;;;6.03;4.28;;;;;;;23.48;57.47;102000.78;7385359;19;19918;-69
2023/06/22 09:03:53;;;;;;;5.70;4.03;;;;;;;23.54;57.90;102011.91;7384192;19;19946;-70
2023/06/22 09:06:22;;;;;;;5.85;3.92;;;;;;;23.59;57.33;101996.38;7388117;19;19932;-70
2023/06/22 09:08:53;;;;;;;8.02;3.83;;;;;;;23.63;56.84;102008.59;7382876;19;19923;-70
2023/06/22 09:11:22;;;;;;;6.13;4.30;;;;;;;23.65;56.80;102002.84;7386660;19;19919;-70
2023/06/22 09:13:51;;;;;;;7.38;4.43;;;;;;;23.72;56.98;102001.69;7384082;19;19931;-70
2023/06/22 09:16:20;;;;;;;6.20;3.83;;;;;;;23.80;56.82;102003.25;7387302;19;21813;-69
2023/06/22 09:18:50;;;;;;;9.45;4.50;;;;;;;23.85;56.88;101995.13;7386333;19;19934;-69
2023/06/22 09:21:19;;;;;;;5.28;4.13;;;;;;;23.93;56.86;102001.09;7385178;19;19922;-70
2023/06/22 09:23:51;;;;;;;6.38;3.92;;;;;;;24.00;56.05;101989.13;7385489;19;19922;-69
2023/06/22 09:26:23;;;;;;;5.00;3.90;;;;;;;24.07;56.33;101993.47;7383856;19;19967;-72
2023/06/22 09:28:52;;;;;;;7.15;4.53;;;;;;;24.14;54.98;101983.16;7384886;19;19925;-69
2023/06/22 09:31:25;;;;;;;7.10;4.20;;;;;;;24.18;54.97;101978.88;7386382;19;19930;-69
2023/06/22 09:33:55;;;;;;;5.38;4.00;;;;;;;24.24;55.21;101977.94;7386158;19;19922;-69
2023/06/22 09:36:24;;;;;;;7.88;5.30;;;;;;;24.32;55.70;101985.81;7384381;19;19926;-69
2023/06/22 09:38:55;;;;;;;6.07;3.72;;;;;;;24.42;55.72;101975.00;7382347;19;20342;-71
2023/06/22 09:41:26;;;;;;;8.10;4.75;;;;;;;24.51;55.64;101983.72;7383592;19;20424;-69
2023/06/22 09:43:55;;;;;;;10.77;4.40;;;;;;;24.60;55.55;101975.94;7383951;19;20487;-69
2023/06/22 09:46:25;;;;;;;7.03;4.18;;;;;;;24.68;54.74;101973.63;7382785;19;19946;-70
2023/06/22 09:48:54;;;;;;;6.72;3.63;;;;;;;24.76;54.40;101969.69;7385581;19;19923;-70
2023/06/22 09:51:23;;;;;;;7.63;4.75;;;;;;;24.86;54.33;101969.91;7387142;19;19926;-69
2023/06/22 09:53:53;;;;;;;6.55;4.28;;;;;;;24.94;54.09;101961.22;7379833;19;20502;-71
2023/06/22 09:56:22;;;;;;;7.97;3.72;;;;;;;25.00;53.11;101973.19;7380737;19;19941;-71
2023/06/22 09:58:54;;;;;;;6.97;3.83;;;;;;;25.08;52.76;101957.09;7381339;19;20273;-74
2023/06/22 10:01:23;;;;;;;9.25;3.92;;;;;;;25.17;52.98;101957.53;7379832;19;19926;-75
2023/06/22 10:03:54;;;;;;;5.45;3.92;;;;;;;25.26;53.30;101954.13;7383989;19;19962;-74
2023/06/22 10:06:22;;;;;;;5.55;3.25;;;;;;;25.37;53.06;101951.56;7383841;19;19943;-74
2023/06/22 10:08:53;;;;;;;5.78;4.15;;;;;;;25.46;53.02;101945.38;7385390;19;19949;-74
2023/06/22 10:11:26;;;;;;;6.50;4.70;;;;;;;25.53;52.49;101942.47;7381714;19;19921;-75
2023/06/22 10:13:58;;;;;;;5.70;3.40;;;;;;;25.62;52.33;101935.47;7387382;19;19960;-74
2023/06/22 10:16:32;;;;;;;7.40;4.15;;;;;;;25.70;51.91;101935.88;7386098;19;19962;-75
2023/06/22 10:19:01;;;;;;;6.78;3.80;;;;;;;25.75;51.74;101937.91;7388685;19;19922;-74
2023/06/22 10:21:31;;;;;;;9.38;4.22;;;;;;;25.82;51.35;101930.28;7381629;19;19922;-74
2023/06/22 10:24:05;;;;;;;5.18;3.95;;;;;;;25.89;51.69;101936.44;7381084;19;20508;-74
2023/06/22 10:26:34;;;;;;;6.93;4.05;;;;;;;25.98;51.25;101929.41;7380066;19;19927;-71
2023/06/22 10:29:06;;;;;;;5.88;4.65;;;;;;;26.06;51.23;101928.97;7382244;19;19975;-74
2023/06/22 10:31:34;;;;;;;5.20;3.97;;;;;;;26.18;51.35;101935.25;7380616;19;20628;-75
2023/06/22 10:34:03;;;;;;;9.38;4.50;;;;;;;26.21;50.06;101927.56;7383349;19;20415;-74
2023/06/22 10:36:32;;;;;;;7.72;4.20;;;;;;;26.27;49.48;101932.91;7380862;19;20360;-75
2023/06/22 10:39:02;;;;;;;5.80;3.70;;;;;;;26.37;50.22;101932.19;7379990;19;20010;-74
2023/06/22 10:41:32;;;;;;;4.93;3.80;;;;;;;26.48;49.58;101939.53;7381990;19;19943;-74
2023/06/22 10:44:00;;;;;;;6.88;3.90;;;;;;;26.57;50.03;101927.78;7382667;19;19918;-74
2023/06/22 10:46:32;;;;;;;7.80;4.45;;;;;;;26.46;49.32;101925.13;7377533;19;19925;-73
2023/06/22 10:49:01;;;;;;;7.20;3.90;;;;;;;26.48;49.88;101925.72;7381921;19;20607;-73
2023/06/22 10:51:31;;;;;;;6.35;4.00;;;;;;;26.38;50.76;101925.56;7385799;19;19958;-73
2023/06/22 10:54:00;;;;;;;5.15;3.58;;;;;;;26.56;50.57;101930.78;7381720;19;19922;-74
2023/06/22 10:56:28;;;;;;;6.68;4.53;;;;;;;26.73;49.53;101933.47;7379070;19;20477;-74
2023/06/22 10:58:57;;;;;;;7.82;5.70;;;;;;;26.82;48.94;101921.69;7377836;19;19929;-72
2023/06/22 11:01:26;;;;;;;9.50;6.72;;;;;;;26.86;49.42;101930.34;7379899;19;19925;-80
2023/06/22 11:03:57;;;;;;;6.50;3.95;;;;;;;27.01;48.93;101911.13;7382386;19;19922;-70
2023/06/22 11:06:26;;;;;;;7.65;5.18;;;;;;;27.09;48.60;101908.72;7384167;19;19994;-80
2023/06/22 11:08:57;;;;;;;;;;;;;;;26.98;48.50;101906.13;7391012;19;19919;-87
2023/06/22 11:11:26;;;;;;;;;;;;;;;27.08;48.56;101909.84;7392656;19;19922;-91
2023/06/22 11:13:55;;;;;;;8.50;4.97;;;;;;;27.25;49.09;101906.13;7383343;19;19922;-76
2023/06/22 11:16:24;;;;;;;6.38;4.35;;;;;;;27.41;49.01;101905.13;7383503;19;19953;-77
2023/06/22 11:18:53;;;;;;;9.82;4.97;;;;;;;27.56;47.52;101896.16;7381488;19;19934;-76
2023/06/22 11:21:24;;;;;;;5.03;3.55;;;;;;;27.78;47.79;101892.19;7381232;19;19947;-75
2023/06/22 11:23:53;;;;;;;7.22;5.72;;;;;;;28.01;47.36;101890.09;7383353;19;19999;-77
2023/06/22 11:26:23;;;;;;;7.20;4.97;;;;;;;28.19;46.65;101901.59;7380477;19;19926;-76
2023/06/22 11:28:51;;;;;;;7.93;4.40;;;;;;;28.27;45.87;101898.28;7380405;19;20502;-73